Welsh, Louisiana
Current Conditions -  °F | °C
As of 8:35 AM on Thursday 27 Nov 2014 (Local Time) from K3R7 Reporting Station
Clear Clear  
Wind Chill: 45°   Ceiling: Unl
Heat Index: 49°   Visibility: 10mi
Dew Point: 37°   Wind: 8mph
Humidity: 64%   Direction: 20°NNE
Pressure: 30.47"   Gusts: NA
Location:  30.24°N, 92.82°W
Report Text: K3R7 271435Z AUTO 02007KT 10SM CLR 09/03 A3047 RMK AO2 T00920028
Loading
Personal Weather Stations






























Interactive Weather Map New forecast layout! Learn more

10-Day Weather Forecast

Advertisements
Track Severe Weather on mobile